Time;durP1;ratioP1;P1;durP2;ratioP2;P2;SDS_P1;SDS_P2;PMS_P1;PMS_P2;Temp;Humidity;BMP_temperature;BMP_pressure;BME280_temperature;BME280_humidity;BME280_pressure;Samples;Min_cycle;Max_cycle;Signal;HPM_P1;HPM_P2
2023/04/13 00:00:08;;;;;;;300.67;112.97;;;;;;;11.48;45.86;98754.00;317559;31;3134;-76
2023/04/13 00:00:20;;;;;;;306.55;114.95;;;;;;;11.48;45.96;98751.38;318097;30;1674;-76
2023/04/13 00:00:31;;;;;;;305.63;114.68;;;;;;;11.47;45.82;98744.47;316817;31;2254;-76
2023/04/13 00:00:41;;;;;;;303.53;111.93;;;;;;;11.47;46.04;98743.63;314390;30;3932;-75
2023/04/13 00:00:52;;;;;;;304.33;113.03;;;;;;;11.48;46.08;98751.38;315324;31;4703;-75
2023/04/13 00:01:06;;;;;;;304.07;112.10;;;;;;;11.47;46.11;98754.09;308779;31;3303;-76
2023/04/13 00:01:18;;;;;;;304.25;111.93;;;;;;;11.46;46.08;98753.25;311207;31;3920;-76
2023/04/13 00:01:31;;;;;;;305.33;113.15;;;;;;;11.44;45.79;98749.88;310531;31;4464;-76
2023/04/13 00:01:44;;;;;;;301.25;113.97;;;;;;;11.44;46.14;98749.03;305843;31;4594;-76
2023/04/13 00:01:55;;;;;;;306.40;115.25;;;;;;;11.42;45.91;98751.75;301735;32;2956;-76
2023/04/13 00:02:05;;;;;;;312.27;116.80;;;;;;;11.40;45.91;98748.38;302087;32;1259;-76
2023/04/13 00:02:16;;;;;;;312.90;116.50;;;;;;;11.39;45.90;98741.44;305428;32;3531;-76
2023/04/13 00:02:26;;;;;;;306.25;114.78;;;;;;;11.43;46.18;98756.06;302829;32;2444;-75
2023/04/13 00:02:40;;;;;;;299.27;112.90;;;;;;;11.42;45.94;98751.75;301739;32;3878;-76
2023/04/13 00:02:54;;;;;;;298.33;113.97;;;;;;;11.45;46.01;98750.72;298770;32;2988;-76
2023/04/13 00:03:05;;;;;;;304.98;114.00;;;;;;;11.36;46.18;98752.09;303298;32;4372;-76
2023/04/13 00:03:17;;;;;;;302.52;109.93;;;;;;;11.35;46.23;98745.16;303164;32;4593;-76
2023/04/13 00:03:32;;;;;;;298.55;107.32;;;;;;;11.34;46.46;98743.47;300920;32;6757;-77
2023/04/13 00:03:44;;;;;;;296.45;108.63;;;;;;;11.38;46.27;98755.47;297516;32;5839;-76
2023/04/13 00:03:56;;;;;;;297.92;110.82;;;;;;;11.40;46.10;98753.59;298099;33;1299;-76
2023/04/13 00:04:08;;;;;;;301.05;110.65;;;;;;;11.39;46.28;98749.31;291300;34;976;-76
2023/04/13 00:04:21;;;;;;;297.85;107.90;;;;;;;11.39;46.17;98748.47;289522;33;7530;-76
2023/04/13 00:04:32;;;;;;;293.75;107.05;;;;;;;11.39;46.00;98751.06;287581;33;5318;-76
2023/04/13 00:04:43;;;;;;;295.13;108.75;;;;;;;11.41;46.18;98750.06;286992;34;4800;-76
2023/04/13 00:04:53;;;;;;;295.60;110.40;;;;;;;11.38;46.25;98752.00;291077;34;5188;-76
2023/04/13 00:05:06;;;;;;;300.10;112.87;;;;;;;11.27;46.65;98744.75;285548;34;4990;-76
2023/04/13 00:05:16;;;;;;;300.58;113.03;;;;;;;11.27;46.63;98752.63;284539;34;6787;-76
2023/04/13 00:05:27;;;;;;;298.93;111.83;;;;;;;11.26;46.54;98749.16;284692;34;6850;-77
2023/04/13 00:05:38;;;;;;;298.10;111.07;;;;;;;11.27;46.25;98742.16;285836;34;4292;-76
2023/04/13 00:05:51;;;;;;;298.65;111.65;;;;;;;11.28;46.52;98749.06;283420;34;7928;-76
2023/04/13 00:06:02;;;;;;;304.60;113.60;;;;;;;11.27;46.25;98744.75;282577;34;8378;-75
2023/04/13 00:06:12;;;;;;;302.05;111.78;;;;;;;11.27;46.35;98752.63;283538;34;9943;-76
2023/04/13 00:06:23;;;;;;;301.67;111.43;;;;;;;11.25;46.52;98752.75;284881;34;1330;-76
2023/04/13 00:06:37;;;;;;;297.42;110.03;;;;;;;11.27;46.40;98752.63;279867;34;9766;-76
2023/04/13 00:08:17;;;;;;;289.24;104.05;;;;;;;11.27;46.36;98747.38;2487250;27;20491;-75
2023/04/13 00:08:29;;;;;;;296.40;108.40;;;;;;;11.26;46.50;98745.72;354217;27;1356;-75
2023/04/13 00:08:41;;;;;;;294.27;105.93;;;;;;;11.26;46.87;98745.72;350129;28;3331;-75
2023/04/13 00:08:53;;;;;;;294.00;106.85;;;;;;;11.24;46.47;98758.06;347538;28;2623;-75
2023/04/13 00:09:04;;;;;;;299.25;110.22;;;;;;;11.24;46.58;98748.44;346311;28;880;-75
2023/04/13 00:09:15;;;;;;;301.33;112.20;;;;;;;11.24;46.29;98748.44;345922;28;4742;-75
2023/04/13 00:09:26;;;;;;;301.33;112.95;;;;;;;11.25;46.54;98751.91;346195;28;1382;-75
2023/04/13 00:09:36;;;;;;;296.17;110.45;;;;;;;11.25;46.57;98746.66;344509;28;3559;-75
2023/04/13 00:09:49;;;;;;;296.73;109.05;;;;;;;11.18;46.75;98747.94;344768;28;2891;-75
2023/04/13 00:10:02;;;;;;;303.05;110.13;;;;;;;11.23;46.58;98756.38;346092;28;935;-75
2023/04/13 00:10:14;;;;;;;302.17;109.20;;;;;;;11.22;46.63;98754.69;348173;28;1233;-75
2023/04/13 00:10:26;;;;;;;300.13;108.32;;;;;;;11.22;46.74;98757.31;348898;28;848;-76
2023/04/13 00:10:39;;;;;;;293.75;106.00;;;;;;;11.22;46.67;98752.06;345171;28;3832;-74
2023/04/13 00:10:50;;;;;;;296.60;108.65;;;;;;;11.19;46.93;98752.25;348492;28;1393;-75
2023/04/13 00:11:00;;;;;;;302.83;112.17;;;;;;;11.20;46.72;98753.94;348942;28;801;-77
2023/04/13 00:11:11;;;;;;;303.67;111.43;;;;;;;11.21;46.59;98746.00;346225;28;1205;-75
2023/04/13 00:11:21;;;;;;;302.30;110.45;;;;;;;11.22;46.66;98750.28;346712;28;947;-75
2023/04/13 00:11:32;;;;;;;296.90;107.73;;;;;;;11.23;46.60;98759.84;347982;28;3653;-75
2023/04/13 00:11:42;;;;;;;296.52;108.22;;;;;;;11.22;46.82;98752.91;346752;28;4745;-77
2023/04/13 00:11:53;;;;;;;295.37;107.63;;;;;;;11.23;46.77;98756.38;349071;28;1307;-75
2023/04/13 00:12:03;;;;;;;299.95;108.78;;;;;;;11.22;46.91;98757.31;347458;28;1215;-76
2023/04/13 00:12:14;;;;;;;300.20;108.20;;;;;;;11.24;46.80;98752.81;345939;28;1023;-75
2023/04/13 00:12:25;;;;;;;300.07;108.60;;;;;;;11.21;46.82;98745.16;345493;28;899;-76
2023/04/13 00:12:35;;;;;;;296.75;107.75;;;;;;;11.21;46.76;98748.59;344732;28;3687;-76
2023/04/13 00:12:46;;;;;;;297.38;108.65;;;;;;;11.21;46.72;98753.00;340930;28;4753;-75
2023/04/13 00:13:00;;;;;;;298.73;108.47;;;;;;;11.19;46.59;98747.84;345448;28;1224;-76
2023/04/13 00:13:11;;;;;;;299.20;108.13;;;;;;;11.21;46.84;98753.00;344873;28;927;-76
2023/04/13 00:13:23;;;;;;;300.33;108.60;;;;;;;11.20;46.95;98753.94;341258;28;873;-76
2023/04/13 00:13:39;;;;;;;296.02;106.35;;;;;;;11.16;47.01;98758.50;342504;28;3492;-76
2023/04/13 00:13:52;;;;;;;296.92;108.57;;;;;;;11.16;46.70;98749.81;342128;28;1402;-75
2023/04/13 00:14:02;;;;;;;302.50;110.25;;;;;;;11.15;47.04;98759.44;342123;28;974;-76
2023/04/13 00:14:13;;;;;;;300.13;106.82;;;;;;;11.15;47.04;98759.44;344217;28;3076;-76
2023/04/13 00:14:32;;;;;;;300.80;107.57;;;;;;;11.14;47.07;98754.28;341951;28;1200;-76
2023/04/13 00:14:43;;;;;;;296.00;108.75;;;;;;;11.16;47.09;98760.28;340162;28;4435;-76
2023/04/13 00:14:53;;;;;;;296.93;108.50;;;;;;;11.13;47.23;98760.44;341821;28;5100;-76
2023/04/13 00:15:04;;;;;;;303.13;110.75;;;;;;;11.15;46.93;98753.34;341959;28;1563;-76
2023/04/13 00:15:16;;;;;;;304.00;110.03;;;;;;;11.12;46.97;98759.59;336898;29;4887;-76
2023/04/13 00:15:26;;;;;;;296.77;105.53;;;;;;;11.15;46.99;98763.81;338945;29;1463;-76
2023/04/13 00:15:40;;;;;;;295.35;105.30;;;;;;;11.14;47.03;98762.13;335973;29;3672;-76
2023/04/13 00:15:52;;;;;;;297.38;107.40;;;;;;;11.13;47.09;98757.81;336918;29;866;-75
2023/04/13 00:16:04;;;;;;;298.98;107.93;;;;;;;11.13;46.92;98755.22;339442;29;1433;-75
2023/04/13 00:16:15;;;;;;;298.30;107.25;;;;;;;11.09;47.09;98758.94;340261;29;3093;-76
2023/04/13 00:16:27;;;;;;;296.50;106.15;;;;;;;11.12;47.14;98758.75;338554;29;3330;-75
2023/04/13 00:16:38;;;;;;;295.33;107.07;;;;;;;11.13;47.29;98755.22;336793;29;4605;-76
2023/04/13 00:16:50;;;;;;;297.20;108.33;;;;;;;11.10;47.59;98752.75;338314;29;896;-76
2023/04/13 00:17:01;;;;;;;303.48;112.85;;;;;;;11.13;47.33;98752.59;339375;29;1575;-75
2023/04/13 00:17:12;;;;;;;302.60;111.40;;;;;;;11.09;47.40;98754.53;338976;29;3051;-75
2023/04/13 00:17:25;;;;;;;299.60;108.40;;;;;;;11.10;47.17;98760.63;334335;29;1692;-75
2023/04/13 00:17:36;;;;;;;298.67;107.70;;;;;;;11.08;47.44;98754.63;331433;29;4505;-75
2023/04/13 00:17:47;;;;;;;298.60;107.22;;;;;;;11.08;47.24;98758.09;335615;29;906;-75
2023/04/13 00:17:57;;;;;;;300.67;108.93;;;;;;;11.10;47.31;98765.84;336552;29;1035;-75
2023/04/13 00:18:09;;;;;;;300.13;108.47;;;;;;;11.07;47.30;98751.16;331668;29;3047;-75
2023/04/13 00:18:19;;;;;;;296.13;106.40;;;;;;;11.07;47.41;98755.56;333171;29;898;-75
2023/04/13 00:18:30;;;;;;;295.17;107.60;;;;;;;11.05;47.04;98758.25;331332;29;3634;-77
2023/04/13 00:18:41;;;;;;;297.55;109.43;;;;;;;11.05;47.20;98758.25;330594;29;1882;-76
2023/04/13 00:18:51;;;;;;;299.70;109.30;;;;;;;11.07;47.45;98760.78;327813;30;2215;-75
2023/04/13 00:19:03;;;;;;;298.40;107.30;;;;;;;11.06;47.59;98757.34;329468;30;850;-76
2023/04/13 00:19:13;;;;;;;297.50;106.93;;;;;;;11.06;47.42;98748.63;327436;30;2354;-76
2023/04/13 00:19:24;;;;;;;295.50;106.13;;;;;;;11.07;47.42;98755.56;328646;29;1757;-76
2023/04/13 00:19:35;;;;;;;295.35;106.00;;;;;;;11.05;47.34;98753.03;325810;29;3390;-75
2023/04/13 00:19:46;;;;;;;296.45;106.47;;;;;;;11.06;47.45;98759.09;327474;30;4779;-76
2023/04/13 00:19:57;;;;;;;302.15;108.13;;;;;;;11.04;47.66;98755.72;327325;30;1513;-76
2023/04/13 00:20:12;;;;;;;301.20;108.18;;;;;;;11.03;47.69;98754.03;327553;29;4985;-76
2023/04/13 00:20:22;;;;;;;299.05;108.28;;;;;;;11.04;47.60;98750.50;327719;29;2152;-76
2023/04/13 00:20:33;;;;;;;296.63;107.88;;;;;;;11.03;47.48;98759.28;325193;30;3819;-75
2023/04/13 00:20:43;;;;;;;299.47;110.13;;;;;;;11.05;47.77;98752.19;326989;30;2736;-75
2023/04/13 00:20:53;;;;;;;304.07;112.27;;;;;;;11.04;47.70;98756.56;326559;30;2389;-75
2023/04/13 00:21:04;;;;;;;303.95;110.72;;;;;;;11.06;47.50;98759.94;326717;30;3019;-75
2023/04/13 00:21:15;;;;;;;300.77;107.80;;;;;;;11.05;47.37;98754.78;323660;30;2703;-75
2023/04/13 00:21:26;;;;;;;294.60;104.70;;;;;;;11.06;47.41;98754.72;322443;30;3393;-75
2023/04/13 00:21:40;;;;;;;298.60;107.78;;;;;;;11.09;47.21;98761.56;323254;30;4408;-75
2023/04/13 00:21:54;;;;;;;300.58;109.07;;;;;;;11.07;47.33;98760.78;323225;30;876;-76
2023/04/13 00:22:04;;;;;;;299.75;108.55;;;;;;;11.09;47.42;98759.78;319667;30;3193;-76
2023/04/13 00:22:15;;;;;;;297.83;105.93;;;;;;;11.10;47.31;98752.75;318820;30;2314;-76
2023/04/13 00:22:28;;;;;;;297.50;107.68;;;;;;;11.09;47.53;98765.00;319087;30;3690;-76
2023/04/13 00:22:40;;;;;;;297.75;110.18;;;;;;;11.04;47.46;98759.19;320076;30;2865;-75
2023/04/13 00:22:50;;;;;;;299.20;111.00;;;;;;;11.04;47.24;98755.72;316580;30;3391;-75
2023/04/13 00:23:01;;;;;;;298.97;110.37;;;;;;;11.04;47.23;98755.72;316176;31;3571;-76
2023/04/13 00:23:11;;;;;;;298.88;110.18;;;;;;;11.05;47.44;98760.03;312057;31;4447;-76
2023/04/13 00:23:22;;;;;;;299.03;108.90;;;;;;;11.03;47.48;98759.28;312185;31;3449;-75
2023/04/13 00:23:34;;;;;;;299.77;108.57;;;;;;;11.03;47.45;98761.91;311143;31;3975;-76
2023/04/13 00:23:45;;;;;;;298.34;107.42;;;;;;;11.04;47.85;98755.72;310500;31;3560;-76
2023/04/13 00:23:56;;;;;;;298.03;108.53;;;;;;;11.03;47.70;98756.66;312680;31;2784;-76
2023/04/13 00:24:06;;;;;;;299.75;110.03;;;;;;;11.04;47.33;98758.34;312787;31;3596;-75
2023/04/13 00:24:18;;;;;;;302.30;112.75;;;;;;;11.03;47.85;98754.88;309052;31;5000;-75
2023/04/13 00:24:29;;;;;;;303.20;114.20;;;;;;;11.06;47.68;98761.72;308019;31;3694;-75
2023/04/13 00:24:42;;;;;;;303.93;112.93;;;;;;;11.03;47.92;98759.28;310078;31;4229;-75
2023/04/13 00:24:56;;;;;;;303.63;111.07;;;;;;;11.05;47.84;98758.25;304093;31;4136;-75
2023/04/13 00:25:07;;;;;;;304.85;111.78;;;;;;;11.04;47.78;98758.34;299654;31;5507;-75
2023/04/13 00:25:17;;;;;;;301.93;110.97;;;;;;;11.01;47.69;98756.75;307711;32;4847;-75
2023/04/13 00:25:28;;;;;;;298.63;109.20;;;;;;;11.03;47.91;98765.34;311541;31;4310;-75
2023/04/13 00:25:38;;;;;;;297.80;108.33;;;;;;;11.00;47.87;98761.13;306308;31;4597;-76
2023/04/13 00:25:50;;;;;;;297.58;108.28;;;;;;;10.99;47.64;98756.81;302211;32;3136;-76
2023/04/13 00:26:00;;;;;;;299.38;109.63;;;;;;;11.00;47.80;98761.13;302882;32;4579;-75
2023/04/13 00:26:10;;;;;;;300.08;108.65;;;;;;;11.00;47.73;98755.91;301871;32;3926;-75
2023/04/13 00:26:21;;;;;;;301.60;108.93;;;;;;;11.02;47.74;98758.44;302841;32;2767;-76
2023/04/13 00:26:31;;;;;;;298.88;107.18;;;;;;;11.02;47.83;98763.66;299669;32;3962;-76
2023/04/13 00:26:43;;;;;;;298.83;108.03;;;;;;;11.01;47.88;98761.97;299199;32;4468;-76
2023/04/13 00:26:55;;;;;;;298.52;109.00;;;;;;;10.98;47.89;98757.75;298914;32;5986;-75
2023/04/13 00:27:07;;;;;;;299.83;109.63;;;;;;;10.99;48.06;98762.06;300521;32;2896;-75
2023/04/13 00:27:17;;;;;;;301.50;110.90;;;;;;;10.98;47.92;98765.63;294590;33;3265;-75
2023/04/13 00:27:29;;;;;;;298.50;107.70;;;;;;;11.00;48.22;98761.13;294696;33;4650;-75
2023/04/13 00:27:40;;;;;;;300.27;109.20;;;;;;;10.99;48.31;98758.59;289867;33;6185;-75
2023/04/13 00:27:51;;;;;;;300.38;110.95;;;;;;;10.99;48.08;98763.84;292769;33;2891;-76
2023/04/13 00:28:02;;;;;;;301.02;112.35;;;;;;;10.96;48.04;98759.63;287910;34;3501;-75
2023/04/13 00:28:15;;;;;;;299.00;110.72;;;;;;;10.99;48.12;98759.44;286904;34;5879;-75
2023/04/13 00:28:27;;;;;;;300.20;111.60;;;;;;;10.98;48.07;98749.91;286209;34;4717;-75
2023/04/13 00:28:37;;;;;;;298.58;109.70;;;;;;;10.99;47.99;98753.38;288265;34;6765;-76
2023/04/13 00:28:48;;;;;;;297.83;108.75;;;;;;;10.97;47.76;98756.06;287453;34;3178;-76
2023/04/13 00:28:58;;;;;;;297.17;107.50;;;;;;;10.97;48.02;98755.22;284271;34;7208;-75
2023/04/13 00:29:09;;;;;;;299.20;109.13;;;;;;;10.98;47.92;98755.13;280330;34;7235;-76
2023/04/13 00:29:20;;;;;;;301.67;110.23;;;;;;;10.96;47.90;98757.00;281280;35;3455;-76
2023/04/13 00:29:30;;;;;;;302.95;112.40;;;;;;;10.96;47.89;98759.63;280586;34;11575;-77
2023/04/13 00:29:40;;;;;;;300.02;111.00;;;;;;;10.97;47.95;98756.06;281970;34;6250;-76
2023/04/13 00:29:51;;;;;;;303.93;113.07;;;;;;;10.96;48.14;98751.75;283580;34;1246;-76
2023/04/13 00:30:03;;;;;;;301.65;109.22;;;;;;;10.95;48.14;98752.69;279911;35;3020;-76
2023/04/13 00:30:14;;;;;;;299.90;107.75;;;;;;;10.92;47.83;98752.88;276102;35;8055;-76
2023/04/13 00:32:01;;;;;;;289.05;102.35;;;;;;;10.89;47.94;98752.19;2489043;27;20479;-75
2023/04/13 00:32:12;;;;;;;294.45;104.43;;;;;;;10.88;47.77;98756.59;350422;27;4226;-75
2023/04/13 00:32:23;;;;;;;294.98;104.93;;;;;;;10.88;47.80;98756.59;350390;28;839;-76
2023/04/13 00:32:34;;;;;;;296.77;107.38;;;;;;;10.85;47.75;98753.28;345154;28;3823;-75
2023/04/13 00:32:44;;;;;;;297.23;106.25;;;;;;;10.84;47.77;98756.84;347433;28;1424;-76
2023/04/13 00:32:55;;;;;;;298.53;106.37;;;;;;;10.82;48.58;98751.72;348073;28;4084;-76
2023/04/13 00:33:05;;;;;;;295.92;102.47;;;;;;;10.85;47.59;98751.50;348857;28;3601;-76
2023/04/13 00:33:16;;;;;;;297.50;104.53;;;;;;;10.86;47.62;98758.44;348298;28;4733;-76
2023/04/13 00:33:26;;;;;;;295.75;104.05;;;;;;;10.84;47.87;98760.28;347557;28;892;-76
2023/04/13 00:33:36;;;;;;;298.40;107.33;;;;;;;10.78;47.73;98760.66;346898;28;4451;-76
2023/04/13 00:33:47;;;;;;;296.70;106.45;;;;;;;10.75;47.69;98754.75;347199;28;2778;-76
2023/04/13 00:33:57;;;;;;;296.87;104.87;;;;;;;10.79;47.84;98764.97;348572;28;3395;-75
2023/04/13 00:34:08;;;;;;;297.13;104.50;;;;;;;10.80;47.96;98758.81;348645;28;2899;-75
2023/04/13 00:34:18;;;;;;;297.40;104.43;;;;;;;10.80;47.91;98750.97;351813;28;1213;-76
2023/04/13 00:34:28;;;;;;;297.53;105.67;;;;;;;10.79;47.65;98754.50;350122;28;1538;-76
2023/04/13 00:34:39;;;;;;;294.13;104.40;;;;;;;10.81;48.04;98757.88;350272;28;888;-76
2023/04/13 00:34:50;;;;;;;292.77;103.90;;;;;;;10.81;47.63;98751.81;347291;28;1321;-75
2023/04/13 00:35:00;;;;;;;292.57;103.87;;;;;;;10.76;47.72;98756.44;348747;28;1213;-75
2023/04/13 00:35:13;;;;;;;292.92;103.22;;;;;;;10.73;47.86;98747.00;350183;28;871;-76
2023/04/13 00:35:25;;;;;;;292.10;102.15;;;;;;;10.76;47.81;98757.28;349403;28;987;-76
2023/04/13 00:35:38;;;;;;;291.95;101.82;;;;;;;10.76;47.60;98762.53;348291;28;1949;-75
2023/04/13 00:35:49;;;;;;;294.60;102.90;;;;;;;10.78;47.57;98755.44;347268;28;1585;-75
2023/04/13 00:35:59;;;;;;;293.60;102.20;;;;;;;10.78;47.80;98750.19;345525;28;1343;-74
2023/04/13 00:36:10;;;;;;;293.07;102.23;;;;;;;10.78;47.75;98759.81;345755;28;1459;-74
2023/04/13 00:36:23;;;;;;;294.65;103.07;;;;;;;10.78;47.82;98755.44;344479;28;977;-73
2023/04/13 00:36:33;;;;;;;296.50;103.90;;;;;;;10.79;47.63;98754.50;343274;28;968;-73
2023/04/13 00:36:44;;;;;;;298.17;105.33;;;;;;;10.81;47.42;98755.25;344385;28;1300;-73
2023/04/13 00:36:54;;;;;;;295.20;103.22;;;;;;;10.80;47.70;98753.56;343207;28;1368;-73
2023/04/13 00:37:06;;;;;;;294.60;102.63;;;;;;;10.75;47.87;98745.13;344542;28;1412;-73
2023/04/13 00:37:17;;;;;;;292.52;100.65;;;;;;;10.67;47.89;98752.56;341757;28;1820;-73
2023/04/13 00:37:29;;;;;;;294.65;103.13;;;;;;;10.68;47.73;98750.78;343650;28;1513;-74
2023/04/13 00:37:41;;;;;;;294.92;105.35;;;;;;;10.66;47.83;98756.94;344143;28;2549;-73
2023/04/13 00:37:52;;;;;;;296.42;106.60;;;;;;;10.65;47.86;98749.19;345699;28;1692;-73
2023/04/13 00:38:03;;;;;;;296.37;105.97;;;;;;;10.67;47.85;98752.56;343409;28;1288;-73
2023/04/13 00:38:13;;;;;;;295.70;105.20;;;;;;;10.66;47.74;98748.25;345675;28;1316;-73
2023/04/13 00:38:26;;;;;;;295.50;103.32;;;;;;;10.66;47.46;98756.09;345241;28;1122;-73
2023/04/13 00:38:36;;;;;;;296.83;103.50;;;;;;;10.64;47.77;98755.34;342439;28;1566;-73
2023/04/13 00:38:47;;;;;;;295.83;102.82;;;;;;;10.61;47.88;98745.88;340604;29;1360;-74
2023/04/13 00:38:57;;;;;;;294.93;102.90;;;;;;;10.57;47.93;98748.75;341887;28;978;-73
2023/04/13 00:39:08;;;;;;;295.50;104.00;;;;;;;10.55;47.53;98753.22;342091;28;850;-73
2023/04/13 00:39:22;;;;;;;295.10;104.20;;;;;;;10.54;47.73;98752.38;338901;29;1946;-73
2023/04/13 00:39:32;;;;;;;295.75;102.90;;;;;;;10.53;47.61;98755.06;336642;29;1373;-73
2023/04/13 00:39:46;;;;;;;299.30;106.40;;;;;;;10.48;48.18;98749.25;332927;29;1920;-73
2023/04/13 00:39:57;;;;;;;297.77;108.82;;;;;;;10.50;48.33;98750.00;337528;29;1200;-73
2023/04/13 00:40:09;;;;;;;298.38;108.50;;;;;;;10.54;48.19;98757.59;336413;29;1445;-73
2023/04/13 00:40:20;;;;;;;294.45;102.60;;;;;;;10.51;48.14;98756.94;336439;29;1448;-74
2023/04/13 00:40:30;;;;;;;293.40;101.38;;;;;;;10.52;48.17;98753.38;336630;29;1618;-73
2023/04/13 00:40:40;;;;;;;291.90;102.37;;;;;;;10.47;48.24;98750.19;338703;29;1337;-73
2023/04/13 00:40:51;;;;;;;293.58;103.45;;;;;;;10.42;48.50;98752.19;337497;29;1980;-73
2023/04/13 00:41:02;;;;;;;294.87;104.53;;;;;;;10.46;48.04;98758.94;334131;29;1327;-74
2023/04/13 00:41:13;;;;;;;296.17;102.82;;;;;;;10.50;48.28;98752.63;336801;29;949;-74
2023/04/13 00:41:24;;;;;;;294.63;100.32;;;;;;;10.48;48.37;98757.09;334848;29;1103;-74
2023/04/13 00:41:35;;;;;;;294.02;99.88;;;;;;;10.49;48.23;98758.78;337698;29;1306;-74
2023/04/13 00:41:45;;;;;;;296.10;100.67;;;;;;;10.50;47.94;98755.25;333224;29;3751;-74
2023/04/13 00:41:58;;;;;;;297.77;103.40;;;;;;;10.53;47.95;98755.91;333643;29;4613;-73
2023/04/13 00:42:09;;;;;;;299.42;104.03;;;;;;;10.53;48.38;98755.06;338792;28;2470;-73
2023/04/13 00:42:19;;;;;;;300.13;104.80;;;;;;;10.55;48.11;98748.00;340245;29;1628;-73
2023/04/13 00:42:29;;;;;;;302.13;106.95;;;;;;;10.53;47.97;98750.69;330480;29;2976;-73
2023/04/13 00:42:42;;;;;;;297.50;105.37;;;;;;;10.49;48.50;98753.56;331969;29;1909;-75
2023/04/13 00:42:53;;;;;;;295.10;101.97;;;;;;;10.53;48.03;98758.53;325817;30;4855;-74
2023/04/13 00:43:04;;;;;;;294.70;100.20;;;;;;;10.55;48.30;98758.47;330186;29;4916;-74
2023/04/13 00:43:15;;;;;;;297.85;101.53;;;;;;;10.55;48.04;98750.59;326963;30;805;-74
2023/04/13 00:43:26;;;;;;;297.92;101.63;;;;;;;10.57;47.81;98757.44;326322;30;2968;-74
2023/04/13 00:43:36;;;;;;;297.17;102.03;;;;;;;10.60;48.55;98754.66;325238;30;1253;-74
2023/04/13 00:43:47;;;;;;;293.83;101.10;;;;;;;10.60;48.24;98756.44;324433;30;2370;-75
2023/04/13 00:43:57;;;;;;;293.27;101.22;;;;;;;10.60;47.79;98756.44;319261;30;4676;-75
2023/04/13 00:44:08;;;;;;;294.90;102.17;;;;;;;10.60;47.85;98756.44;319794;30;3599;-75
2023/04/13 00:44:21;;;;;;;299.58;105.53;;;;;;;10.62;47.96;98760.66;322153;30;827;-75
2023/04/13 00:44:31;;;;;;;300.35;104.10;;;;;;;10.62;47.99;98754.56;320832;30;3227;-75
2023/04/13 00:44:42;;;;;;;295.77;102.53;;;;;;;10.63;47.60;98757.13;322174;30;2535;-75
2023/04/13 00:44:52;;;;;;;292.75;101.90;;;;;;;10.63;47.84;98757.13;318438;30;3762;-76
2023/04/13 00:45:03;;;;;;;292.90;103.53;;;;;;;10.64;48.06;98760.56;318796;30;3076;-76
2023/04/13 00:45:13;;;;;;;295.95;102.25;;;;;;;10.65;47.82;98759.66;320613;30;2484;-75
2023/04/13 00:45:25;;;;;;;296.65;101.30;;;;;;;10.68;47.56;98754.25;320135;30;3133;-75
2023/04/13 00:45:38;;;;;;;297.13;102.22;;;;;;;10.64;47.60;98764.03;318416;30;1471;-75
2023/04/13 00:45:48;;;;;;;293.70;103.53;;;;;;;10.66;48.00;98748.25;316960;30;4594;-75
2023/04/13 00:45:59;;;;;;;293.75;103.90;;;;;;;10.69;47.88;98762.94;318582;30;3182;-75
2023/04/13 00:46:09;;;;;;;298.37;105.33;;;;;;;10.68;47.85;98763.88;314058;31;2651;-75
2023/04/13 00:46:21;;;;;;;299.35;104.35;;;;;;;10.70;47.77;98757.63;310471;30;2986;-75
2023/04/13 00:46:31;;;;;;;298.13;103.03;;;;;;;10.71;47.94;98763.69;318792;31;3179;-75
2023/04/13 00:46:45;;;;;;;291.27;100.15;;;;;;;10.69;47.80;98760.31;312916;31;3754;-75
2023/04/13 00:46:55;;;;;;;294.65;103.20;;;;;;;10.68;47.66;98759.47;310155;31;4568;-74
2023/04/13 00:47:06;;;;;;;297.20;104.70;;;;;;;10.69;47.79;98758.56;309261;31;3379;-74
2023/04/13 00:47:18;;;;;;;298.73;104.60;;;;;;;10.70;48.03;98755.00;309757;31;796;-75
2023/04/13 00:47:35;;;;;;;296.10;102.40;;;;;;;10.71;47.92;98753.22;306826;31;3195;-75
2023/04/13 00:47:46;;;;;;;290.70;100.53;;;;;;;10.68;47.99;98751.63;301443;32;4735;-74
2023/04/13 00:47:56;;;;;;;290.95;101.10;;;;;;;10.66;48.02;98756.09;301121;32;4507;-74
2023/04/13 00:48:08;;;;;;;304.43;104.53;;;;;;;10.68;48.01;98753.41;301010;32;3568;-74
2023/04/13 00:48:19;;;;;;;305.40;104.28;;;;;;;10.62;48.06;98751.97;300139;32;956;-74
2023/04/13 00:48:30;;;;;;;306.02;104.97;;;;;;;10.66;47.96;98750.88;301466;32;858;-75
2023/04/13 00:48:40;;;;;;;296.65;102.10;;;;;;;10.66;48.20;98762.19;297323;32;4465;-74
2023/04/13 00:48:51;;;;;;;297.53;103.00;;;;;;;10.66;48.24;98756.09;296333;32;4447;-74
2023/04/13 00:49:02;;;;;;;297.55;103.47;;;;;;;10.67;48.13;98765.63;300041;32;1335;-74
2023/04/13 00:49:13;;;;;;;299.13;105.10;;;;;;;10.59;48.00;98754.75;296834;32;4596;-74
2023/04/13 00:49:24;;;;;;;298.08;104.53;;;;;;;10.58;48.23;98755.66;296231;32;4188;-74
2023/04/13 00:49:35;;;;;;;292.27;102.07;;;;;;;10.56;48.17;98750.53;295979;32;4101;-74
2023/04/13 00:49:46;;;;;;;292.40;102.33;;;;;;;10.57;48.34;98756.59;293754;33;4348;-74
2023/04/13 00:49:59;;;;;;;292.38;102.32;;;;;;;10.57;48.36;98759.22;296097;33;3509;-74
2023/04/13 00:50:09;;;;;;;298.35;104.97;;;;;;;10.57;48.33;98756.59;295937;33;3463;-74
2023/04/13 00:50:20;;;;;;;297.23;103.15;;;;;;;10.57;48.66;98761.84;292824;33;3887;-74
2023/04/13 00:50:32;;;;;;;298.63;103.77;;;;;;;10.58;48.74;98763.53;290387;34;1446;-74
2023/04/13 00:50:43;;;;;;;293.27;102.28;;;;;;;10.57;48.59;98762.69;290545;33;5106;-74
2023/04/13 00:50:54;;;;;;;293.20;102.88;;;;;;;10.58;48.63;98755.66;293141;33;6141;-75
2023/04/13 00:51:05;;;;;;;297.27;105.40;;;;;;;10.60;48.46;98756.44;290652;34;2073;-75
2023/04/13 00:51:15;;;;;;;296.30;103.37;;;;;;;10.61;48.40;98764.19;294023;33;1222;-74
2023/04/13 00:51:29;;;;;;;296.77;103.70;;;;;;;10.62;48.41;98754.56;295670;33;6635;-74
2023/04/13 00:51:39;;;;;;;294.02;103.13;;;;;;;10.60;48.68;98757.28;292351;33;6673;-74
2023/04/13 00:51:50;;;;;;;296.27;104.43;;;;;;;10.51;48.83;98746.47;289621;34;6132;-74
2023/04/13 00:52:03;;;;;;;298.48;105.28;;;;;;;10.47;48.94;98758.03;286436;34;927;-74
2023/04/13 00:52:14;;;;;;;296.67;102.32;;;;;;;10.48;48.50;98762.31;287861;34;5024;-74
2023/04/13 00:52:25;;;;;;;296.00;102.03;;;;;;;10.49;48.60;98761.41;288411;33;5363;-74
2023/04/13 00:52:38;;;;;;;293.03;101.57;;;;;;;10.47;48.67;98756.25;285906;33;5455;-74
2023/04/13 00:52:48;;;;;;;294.25;103.93;;;;;;;10.48;48.66;98763.16;286964;34;4647;-74
2023/04/13 00:53:00;;;;;;;293.23;102.53;;;;;;;10.50;49.08;98765.72;282405;34;6797;-74
2023/04/13 00:53:12;;;;;;;292.95;101.45;;;;;;;10.51;48.84;98764.78;283477;34;9363;-74
2023/04/13 00:53:23;;;;;;;291.70;100.38;;;;;;;10.48;48.93;98757.94;283442;34;9358;-74
2023/04/13 00:53:33;;;;;;;292.50;101.20;;;;;;;10.51;48.96;98762.16;283493;34;2798;-74
2023/04/13 00:53:43;;;;;;;292.48;101.75;;;;;;;10.48;48.67;98763.16;278539;34;11602;-74
2023/04/13 00:53:56;;;;;;;294.17;102.97;;;;;;;10.49;48.93;98758.78;278861;35;9428;-75
2023/04/13 00:54:07;;;;;;;297.02;102.82;;;;;;;10.49;48.92;98759.63;278762;34;8576;-74
2023/04/13 00:54:17;;;;;;;298.03;103.17;;;;;;;10.51;48.89;98763.00;280939;35;3059;-74
2023/04/13 00:55:52;;;;;;;289.87;97.22;;;;;;;10.46;49.45;98753.72;2494784;27;20334;-75
2023/04/13 00:56:04;;;;;;;297.20;101.82;;;;;;;10.42;48.97;98752.19;353131;28;915;-74
2023/04/13 00:56:15;;;;;;;295.58;100.25;;;;;;;10.43;48.78;98765.19;350414;28;844;-74
2023/04/13 00:56:26;;;;;;;294.87;99.60;;;;;;;10.44;48.68;98759.03;349294;28;961;-74